Date,TemperatureHighF,TemperatureAvgF,TemperatureLowF,DewpointHighF,DewpointAvgF,DewpointLowF,HumidityHigh,HumidityAvg,HumidityLow,PressureMaxIn,PressureMinIn,WindSpeedMaxMPH,WindSpeedAvgMPH,GustSpeedMaxMPH,PrecipitationSumIn
2013-3-1,52.5,40.4,29.5,31.3,25.5,21.6,82,57,37,29.57,29.48,0,-999,0,0.00
2013-3-2,52.2,39.0,27.7,30.6,22.5,16.0,80,53,37,29.60,29.48,0,-999,0,0.00
2013-3-3,49.8,37.2,26.8,23.9,17.2,12.9,61,45,33,29.63,29.51,0,-999,0,0.00
2013-3-4,50.4,37.7,25.5,18.9,15.4,10.6,55,41,28,29.78,29.63,0,-999,0,0.00
2013-3-5,50.2,43.0,35.4,43.3,32.4,17.2,94,68,38,29.75,29.25,0,-999,0,0.00
2013-3-6,47.5,43.1,37.9,46.8,30.2,21.9,97,63,42,29.69,29.19,0,-999,0,0.00
2013-3-7,54.5,42.8,32.5,29.3,25.1,20.1,74,51,37,29.87,29.66,0,-999,0,0.00
2013-3-8,56.1,43.7,28.6,27.1,22.5,19.6,74,45,28,29.93,29.78,0,-999,0,0.00
2013-3-9,63.7,46.4,30.2,31.6,24.7,19.9,72,45,25,30.01,29.90,0,-999,0,0.00
2013-3-10,68.0,50.0,32.2,36.7,26.6,20.7,79,46,22,29.99,29.87,0,-999,0,0.00
2013-3-11,70.3,55.6,38.8,51.1,39.7,22.8,77,56,38,29.90,29.63,0,-999,0,0.00
2013-3-12,71.6,62.1,50.9,61.7,51.7,28.6,96,71,40,29.63,29.45,0,-999,0,0.00
2013-3-13,61.0,49.3,35.6,33.6,27.2,21.0,75,45,27,29.75,29.60,0,-999,0,0.00
2013-3-14,54.3,48.3,36.1,23.2,19.5,16.0,45,32,27,29.84,29.75,0,-999,0,0.00
2013-3-15,63.9,47.2,28.6,32.2,24.5,15.8,68,43,28,29.84,29.57,0,-999,0,0.00
2013-3-16,77.9,63.0,50.9,45.1,39.4,29.7,55,43,30,29.57,29.36,0,-999,0,0.00
2013-3-17,63.1,52.7,41.7,52.0,42.0,34.9,90,68,49,29.84,29.51,0,-999,0,0.00
2013-3-18,44.6,41.2,38.5,41.4,38.3,35.8,97,89,83,29.87,29.54,0,-999,0,0.00
2013-3-19,67.5,52.6,41.2,48.0,35.3,18.1,98,61,24,29.69,29.48,0,-999,0,0.00
2013-3-20,56.8,47.6,39.7,22.3,17.1,11.3,47,30,25,29.78,29.45,0,-999,0,0.00
2013-3-21,50.9,41.1,32.4,25.7,17.4,8.1,62,39,28,29.63,29.39,0,-999,0,0.00
2013-3-22,53.1,39.3,24.6,21.0,14.5,7.9,52,37,26,29.75,29.60,0,-999,0,0.00
2013-3-23,54.9,45.7,37.9,26.8,23.5,19.8,59,42,30,29.72,29.57,0,-999,0,0.00
2013-3-24,41.2,38.9,35.2,37.8,33.1,24.8,93,80,59,29.60,29.25,0,-999,0,0.00
2013-3-25,50.9,41.6,36.7,38.3,28.6,19.2,90,64,38,29.48,29.22,0,-999,0,0.00
2013-3-26,54.5,43.2,33.6,27.7,23.3,19.6,62,46,36,29.75,29.48,0,-999,0,0.00
2013-3-27,55.8,43.5,33.4,26.2,21.5,17.1,63,43,29,29.87,29.75,0,-999,0,0.00
2013-3-28,58.5,45.1,32.0,26.6,21.9,18.1,62,41,27,29.96,29.81,0,-999,0,0.00
2013-3-29,62.4,46.4,29.5,30.6,24.0,18.9,71,44,26,29.99,29.84,0,-999,0,0.00
2013-3-30,68.9,54.4,40.5,40.6,32.5,26.8,67,45,25,29.93,29.75,0,-999,0,0.00
2013-3-31,68.4,57.6,48.9,57.7,49.3,38.7,96,75,56,29.78,29.51,0,-999,0,0.00